sensor_id;sensor_type;location;lat;lon;timestamp;temperature;humidity
45729;DHT22;31439;53.512;10.206;2023-05-27T00:00:01;11.50;99.90
45729;DHT22;31439;53.512;10.206;2023-05-27T00:02:26;11.40;99.90
45729;DHT22;31439;53.512;10.206;2023-05-27T00:04:52;11.40;99.90
45729;DHT22;31439;53.512;10.206;2023-05-27T00:07:18;11.40;99.90
45729;DHT22;31439;53.512;10.206;2023-05-27T00:09:44;11.40;99.90
45729;DHT22;31439;53.512;10.206;2023-05-27T00:12:09;11.40;99.90
45729;DHT22;31439;53.512;10.206;2023-05-27T00:14:35;11.30;99.90
45729;DHT22;31439;53.512;10.206;2023-05-27T00:17:01;11.30;99.90
45729;DHT22;31439;53.512;10.206;2023-05-27T00:19:28;11.20;99.90
45729;DHT22;31439;53.512;10.206;2023-05-27T00:21:55;11.20;99.90
45729;DHT22;31439;53.512;10.206;2023-05-27T00:24:21;11.20;99.90
45729;DHT22;31439;53.512;10.206;2023-05-27T00:26:47;11.10;99.90
45729;DHT22;31439;53.512;10.206;2023-05-27T00:29:13;11.10;99.90
45729;DHT22;31439;53.512;10.206;2023-05-27T00:31:39;11.10;99.90
45729;DHT22;31439;53.512;10.206;2023-05-27T00:34:04;11.10;99.90
45729;DHT22;31439;53.512;10.206;2023-05-27T00:36:30;11.00;99.90
45729;DHT22;31439;53.512;10.206;2023-05-27T00:38:59;11.00;99.90
45729;DHT22;31439;53.512;10.206;2023-05-27T00:41:25;11.00;99.90
45729;DHT22;31439;53.512;10.206;2023-05-27T00:43:52;11.00;99.90
45729;DHT22;31439;53.512;10.206;2023-05-27T00:46:18;11.00;99.90
45729;DHT22;31439;53.512;10.206;2023-05-27T00:48:45;10.90;99.90
45729;DHT22;31439;53.512;10.206;2023-05-27T00:51:12;10.80;99.90
45729;DHT22;31439;53.512;10.206;2023-05-27T00:53:42;10.90;99.90
45729;DHT22;31439;53.512;10.206;2023-05-27T00:56:11;10.80;99.90
45729;DHT22;31439;53.512;10.206;2023-05-27T00:58:41;10.80;99.90
45729;DHT22;31439;53.512;10.206;2023-05-27T01:01:07;10.70;99.90
45729;DHT22;31439;53.512;10.206;2023-05-27T01:03:33;10.70;99.90
45729;DHT22;31439;53.512;10.206;2023-05-27T01:09:05;10.70;99.90
45729;DHT22;31439;53.512;10.206;2023-05-27T01:11:43;10.70;99.90
45729;DHT22;31439;53.512;10.206;2023-05-27T01:14:11;10.60;99.90
45729;DHT22;31439;53.512;10.206;2023-05-27T01:16:39;10.60;99.90
45729;DHT22;31439;53.512;10.206;2023-05-27T01:19:13;10.60;99.90
45729;DHT22;31439;53.512;10.206;2023-05-27T01:21:41;10.60;99.90
45729;DHT22;31439;53.512;10.206;2023-05-27T01:24:10;10.60;99.90
45729;DHT22;31439;53.512;10.206;2023-05-27T01:26:36;10.60;99.90
45729;DHT22;31439;53.512;10.206;2023-05-27T01:29:03;10.60;99.90
45729;DHT22;31439;53.512;10.206;2023-05-27T01:34:03;10.60;99.90
45729;DHT22;31439;53.512;10.206;2023-05-27T01:36:36;10.50;99.90
45729;DHT22;31439;53.512;10.206;2023-05-27T01:39:03;10.50;99.90
45729;DHT22;31439;53.512;10.206;2023-05-27T01:41:31;10.50;99.90
45729;DHT22;31439;53.512;10.206;2023-05-27T01:43:58;10.50;99.90
45729;DHT22;31439;53.512;10.206;2023-05-27T01:46:24;10.40;99.90
45729;DHT22;31439;53.512;10.206;2023-05-27T01:48:50;10.40;99.90
45729;DHT22;31439;53.512;10.206;2023-05-27T01:51:16;10.40;99.90
45729;DHT22;31439;53.512;10.206;2023-05-27T01:53:41;10.50;99.90
45729;DHT22;31439;53.512;10.206;2023-05-27T01:56:07;10.50;99.90
45729;DHT22;31439;53.512;10.206;2023-05-27T01:58:32;10.50;99.90
45729;DHT22;31439;53.512;10.206;2023-05-27T02:00:58;10.50;99.90
45729;DHT22;31439;53.512;10.206;2023-05-27T02:03:24;10.40;99.90
45729;DHT22;31439;53.512;10.206;2023-05-27T02:05:49;10.30;99.90
45729;DHT22;31439;53.512;10.206;2023-05-27T02:08:15;10.40;99.90
45729;DHT22;31439;53.512;10.206;2023-05-27T02:10:41;10.30;99.90
45729;DHT22;31439;53.512;10.206;2023-05-27T02:13:06;10.30;99.90
45729;DHT22;31439;53.512;10.206;2023-05-27T02:15:32;10.20;99.90
45729;DHT22;31439;53.512;10.206;2023-05-27T02:17:58;10.20;99.90
45729;DHT22;31439;53.512;10.206;2023-05-27T02:20:23;10.10;99.90
45729;DHT22;31439;53.512;10.206;2023-05-27T02:22:50;10.10;99.90
45729;DHT22;31439;53.512;10.206;2023-05-27T02:25:16;10.00;99.90
45729;DHT22;31439;53.512;10.206;2023-05-27T02:27:42;10.00;99.90
45729;DHT22;31439;53.512;10.206;2023-05-27T02:30:10;10.00;99.90
45729;DHT22;31439;53.512;10.206;2023-05-27T02:32:35;10.00;99.90
45729;DHT22;31439;53.512;10.206;2023-05-27T02:35:01;9.90;99.90
45729;DHT22;31439;53.512;10.206;2023-05-27T02:37:28;9.90;99.90
45729;DHT22;31439;53.512;10.206;2023-05-27T02:39:54;9.90;99.90
45729;DHT22;31439;53.512;10.206;2023-05-27T02:42:20;10.00;99.90
45729;DHT22;31439;53.512;10.206;2023-05-27T02:44:46;9.90;99.90
45729;DHT22;31439;53.512;10.206;2023-05-27T02:47:11;9.90;99.90
45729;DHT22;31439;53.512;10.206;2023-05-27T02:49:37;9.90;99.90
45729;DHT22;31439;53.512;10.206;2023-05-27T02:52:04;9.80;99.90
45729;DHT22;31439;53.512;10.206;2023-05-27T02:54:30;9.80;99.90
45729;DHT22;31439;53.512;10.206;2023-05-27T02:56:56;9.70;99.90
45729;DHT22;31439;53.512;10.206;2023-05-27T02:59:21;9.70;99.90
45729;DHT22;31439;53.512;10.206;2023-05-27T03:01:47;9.80;99.90
45729;DHT22;31439;53.512;10.206;2023-05-27T03:04:13;9.70;99.90
45729;DHT22;31439;53.512;10.206;2023-05-27T03:06:39;9.70;99.90
45729;DHT22;31439;53.512;10.206;2023-05-27T03:09:05;9.70;99.90
45729;DHT22;31439;53.512;10.206;2023-05-27T03:11:32;9.70;99.90
45729;DHT22;31439;53.512;10.206;2023-05-27T03:13:58;9.70;99.90
45729;DHT22;31439;53.512;10.206;2023-05-27T03:16:24;9.70;99.90
45729;DHT22;31439;53.512;10.206;2023-05-27T03:18:50;9.70;99.90
45729;DHT22;31439;53.512;10.206;2023-05-27T03:21:15;9.70;99.90
45729;DHT22;31439;53.512;10.206;2023-05-27T03:23:41;9.70;99.90
45729;DHT22;31439;53.512;10.206;2023-05-27T03:26:07;9.60;99.90
45729;DHT22;31439;53.512;10.206;2023-05-27T03:28:32;9.60;99.90
45729;DHT22;31439;53.512;10.206;2023-05-27T03:30:58;9.60;99.90
45729;DHT22;31439;53.512;10.206;2023-05-27T03:33:25;9.70;99.90
45729;DHT22;31439;53.512;10.206;2023-05-27T03:35:51;9.60;99.90
45729;DHT22;31439;53.512;10.206;2023-05-27T03:38:17;9.70;99.90
45729;DHT22;31439;53.512;10.206;2023-05-27T03:40:42;9.60;99.90
45729;DHT22;31439;53.512;10.206;2023-05-27T03:43:08;9.70;99.90
45729;DHT22;31439;53.512;10.206;2023-05-27T03:45:34;9.70;99.90
45729;DHT22;31439;53.512;10.206;2023-05-27T03:47:59;9.60;99.90
45729;DHT22;31439;53.512;10.206;2023-05-27T03:50:25;9.70;99.90
45729;DHT22;31439;53.512;10.206;2023-05-27T03:52:51;9.70;99.90
45729;DHT22;31439;53.512;10.206;2023-05-27T03:55:16;9.70;99.90
45729;DHT22;31439;53.512;10.206;2023-05-27T03:57:42;9.70;99.90
45729;DHT22;31439;53.512;10.206;2023-05-27T04:00:09;9.70;99.90
45729;DHT22;31439;53.512;10.206;2023-05-27T04:02:37;9.70;99.90
45729;DHT22;31439;53.512;10.206;2023-05-27T04:05:03;9.70;99.90
45729;DHT22;31439;53.512;10.206;2023-05-27T04:07:29;9.70;99.90
45729;DHT22;31439;53.512;10.206;2023-05-27T04:09:55;9.70;99.90
45729;DHT22;31439;53.512;10.206;2023-05-27T04:12:20;9.70;99.90
45729;DHT22;31439;53.512;10.206;2023-05-27T04:14:46;9.80;99.90
45729;DHT22;31439;53.512;10.206;2023-05-27T04:17:12;9.80;99.90
45729;DHT22;31439;53.512;10.206;2023-05-27T04:19:38;9.80;99.90
45729;DHT22;31439;53.512;10.206;2023-05-27T04:22:05;9.80;99.90
45729;DHT22;31439;53.512;10.206;2023-05-27T04:24:30;9.80;99.90
45729;DHT22;31439;53.512;10.206;2023-05-27T04:26:56;9.80;99.90
45729;DHT22;31439;53.512;10.206;2023-05-27T04:29:22;9.80;99.90
45729;DHT22;31439;53.512;10.206;2023-05-27T04:31:48;9.80;99.90
45729;DHT22;31439;53.512;10.206;2023-05-27T04:34:14;9.90;99.90
45729;DHT22;31439;53.512;10.206;2023-05-27T04:36:40;9.80;99.90
45729;DHT22;31439;53.512;10.206;2023-05-27T04:39:05;9.90;99.90
45729;DHT22;31439;53.512;10.206;2023-05-27T04:41:31;9.80;99.90
45729;DHT22;31439;53.512;10.206;2023-05-27T04:43:58;9.80;99.90
45729;DHT22;31439;53.512;10.206;2023-05-27T04:46:26;9.80;99.90
45729;DHT22;31439;53.512;10.206;2023-05-27T04:48:53;9.90;99.90
45729;DHT22;31439;53.512;10.206;2023-05-27T04:51:19;9.80;99.90
45729;DHT22;31439;53.512;10.206;2023-05-27T04:53:45;9.80;99.90
45729;DHT22;31439;53.512;10.206;2023-05-27T04:56:13;10.00;99.90
45729;DHT22;31439;53.512;10.206;2023-05-27T04:58:40;10.00;99.90
45729;DHT22;31439;53.512;10.206;2023-05-27T05:01:09;10.10;99.90
45729;DHT22;31439;53.512;10.206;2023-05-27T05:03:46;10.10;99.90
45729;DHT22;31439;53.512;10.206;2023-05-27T05:06:22;10.10;99.90
45729;DHT22;31439;53.512;10.206;2023-05-27T05:08:48;10.10;99.90
45729;DHT22;31439;53.512;10.206;2023-05-27T05:11:14;10.20;99.90
45729;DHT22;31439;53.512;10.206;2023-05-27T05:13:40;10.20;99.90
45729;DHT22;31439;53.512;10.206;2023-05-27T05:16:06;10.20;99.90
45729;DHT22;31439;53.512;10.206;2023-05-27T05:18:32;10.20;99.90
45729;DHT22;31439;53.512;10.206;2023-05-27T05:20:57;10.30;99.90
45729;DHT22;31439;53.512;10.206;2023-05-27T05:23:23;10.40;99.90
45729;DHT22;31439;53.512;10.206;2023-05-27T05:25:49;10.50;99.90
45729;DHT22;31439;53.512;10.206;2023-05-27T05:28:20;10.50;99.90
45729;DHT22;31439;53.512;10.206;2023-05-27T05:30:46;10.60;99.90
45729;DHT22;31439;53.512;10.206;2023-05-27T05:33:11;10.70;99.90
45729;DHT22;31439;53.512;10.206;2023-05-27T05:35:37;10.70;99.90
45729;DHT22;31439;53.512;10.206;2023-05-27T05:38:03;10.80;99.90
45729;DHT22;31439;53.512;10.206;2023-05-27T05:40:28;10.80;99.90
45729;DHT22;31439;53.512;10.206;2023-05-27T05:42:54;10.90;99.90
45729;DHT22;31439;53.512;10.206;2023-05-27T05:45:20;10.90;99.90
45729;DHT22;31439;53.512;10.206;2023-05-27T05:47:45;11.00;99.90
45729;DHT22;31439;53.512;10.206;2023-05-27T05:50:11;11.10;99.90
45729;DHT22;31439;53.512;10.206;2023-05-27T05:52:36;11.20;99.90
45729;DHT22;31439;53.512;10.206;2023-05-27T05:55:02;11.20;99.90
45729;DHT22;31439;53.512;10.206;2023-05-27T05:57:28;11.30;99.90
45729;DHT22;31439;53.512;10.206;2023-05-27T05:59:57;11.40;99.90
45729;DHT22;31439;53.512;10.206;2023-05-27T06:02:23;11.40;99.90
45729;DHT22;31439;53.512;10.206;2023-05-27T06:04:48;11.50;99.90
45729;DHT22;31439;53.512;10.206;2023-05-27T06:07:14;11.60;99.90
45729;DHT22;31439;53.512;10.206;2023-05-27T06:09:39;11.60;99.90
45729;DHT22;31439;53.512;10.206;2023-05-27T06:12:05;11.70;99.90
45729;DHT22;31439;53.512;10.206;2023-05-27T06:14:31;11.70;99.90
45729;DHT22;31439;53.512;10.206;2023-05-27T06:16:57;11.80;99.90
45729;DHT22;31439;53.512;10.206;2023-05-27T06:19:23;11.90;99.90
45729;DHT22;31439;53.512;10.206;2023-05-27T06:21:48;11.90;99.90
45729;DHT22;31439;53.512;10.206;2023-05-27T06:24:14;12.00;99.90
45729;DHT22;31439;53.512;10.206;2023-05-27T06:26:40;12.10;99.90
45729;DHT22;31439;53.512;10.206;2023-05-27T06:29:06;12.20;99.90
45729;DHT22;31439;53.512;10.206;2023-05-27T06:31:32;12.30;99.90
45729;DHT22;31439;53.512;10.206;2023-05-27T06:33:58;12.40;99.90
45729;DHT22;31439;53.512;10.206;2023-05-27T06:36:24;12.50;99.90
45729;DHT22;31439;53.512;10.206;2023-05-27T06:38:50;12.60;99.90
45729;DHT22;31439;53.512;10.206;2023-05-27T06:41:15;12.70;99.90
45729;DHT22;31439;53.512;10.206;2023-05-27T06:43:42;12.80;99.90
45729;DHT22;31439;53.512;10.206;2023-05-27T06:46:07;12.90;99.90
45729;DHT22;31439;53.512;10.206;2023-05-27T06:48:33;12.90;99.90
45729;DHT22;31439;53.512;10.206;2023-05-27T06:50:59;13.00;99.90
45729;DHT22;31439;53.512;10.206;2023-05-27T06:53:25;13.10;99.90
45729;DHT22;31439;53.512;10.206;2023-05-27T06:55:51;13.20;99.90
45729;DHT22;31439;53.512;10.206;2023-05-27T06:58:17;13.30;99.90
45729;DHT22;31439;53.512;10.206;2023-05-27T07:00:42;13.40;99.90
45729;DHT22;31439;53.512;10.206;2023-05-27T07:03:08;13.50;99.90
45729;DHT22;31439;53.512;10.206;2023-05-27T07:05:34;13.60;99.90
45729;DHT22;31439;53.512;10.206;2023-05-27T07:07:59;13.60;99.90
45729;DHT22;31439;53.512;10.206;2023-05-27T07:10:25;13.70;99.90
45729;DHT22;31439;53.512;10.206;2023-05-27T07:12:51;13.70;99.90
45729;DHT22;31439;53.512;10.206;2023-05-27T07:15:17;13.80;99.90
45729;DHT22;31439;53.512;10.206;2023-05-27T07:17:42;13.80;99.90
45729;DHT22;31439;53.512;10.206;2023-05-27T07:20:08;13.80;99.90
45729;DHT22;31439;53.512;10.206;2023-05-27T07:22:34;14.00;99.90
45729;DHT22;31439;53.512;10.206;2023-05-27T07:25:01;14.10;99.90
45729;DHT22;31439;53.512;10.206;2023-05-27T07:27:27;14.10;99.90
45729;DHT22;31439;53.512;10.206;2023-05-27T07:29:53;14.10;99.90
45729;DHT22;31439;53.512;10.206;2023-05-27T07:32:19;14.20;99.90
45729;DHT22;31439;53.512;10.206;2023-05-27T07:34:45;14.20;99.90
45729;DHT22;31439;53.512;10.206;2023-05-27T07:37:10;14.20;99.90
45729;DHT22;31439;53.512;10.206;2023-05-27T07:39:39;14.30;99.90
45729;DHT22;31439;53.512;10.206;2023-05-27T07:42:05;14.40;99.90
45729;DHT22;31439;53.512;10.206;2023-05-27T07:44:33;14.50;99.90
45729;DHT22;31439;53.512;10.206;2023-05-27T07:46:59;14.60;99.90
45729;DHT22;31439;53.512;10.206;2023-05-27T07:49:28;14.60;99.90
45729;DHT22;31439;53.512;10.206;2023-05-27T07:51:56;14.60;99.90
45729;DHT22;31439;53.512;10.206;2023-05-27T07:54:37;14.70;99.90
45729;DHT22;31439;53.512;10.206;2023-05-27T07:57:30;14.80;99.90
45729;DHT22;31439;53.512;10.206;2023-05-27T07:59:59;14.80;99.90
45729;DHT22;31439;53.512;10.206;2023-05-27T08:02:59;14.80;99.90
45729;DHT22;31439;53.512;10.206;2023-05-27T08:05:25;14.80;99.90
45729;DHT22;31439;53.512;10.206;2023-05-27T08:07:51;14.90;99.90
45729;DHT22;31439;53.512;10.206;2023-05-27T08:10:16;15.00;99.90
45729;DHT22;31439;53.512;10.206;2023-05-27T08:12:45;15.10;99.90
45729;DHT22;31439;53.512;10.206;2023-05-27T08:15:10;15.20;99.90
45729;DHT22;31439;53.512;10.206;2023-05-27T08:17:39;15.60;99.90
45729;DHT22;31439;53.512;10.206;2023-05-27T08:20:11;15.90;99.90
45729;DHT22;31439;53.512;10.206;2023-05-27T08:22:41;15.80;99.90
45729;DHT22;31439;53.512;10.206;2023-05-27T08:25:07;16.10;99.90
45729;DHT22;31439;53.512;10.206;2023-05-27T08:28:05;16.00;99.90
45729;DHT22;31439;53.512;10.206;2023-05-27T08:30:32;16.00;99.90
45729;DHT22;31439;53.512;10.206;2023-05-27T08:32:58;16.00;99.90
45729;DHT22;31439;53.512;10.206;2023-05-27T08:35:24;16.10;99.90
45729;DHT22;31439;53.512;10.206;2023-05-27T08:37:50;16.20;99.90
45729;DHT22;31439;53.512;10.206;2023-05-27T08:40:18;16.30;99.90
45729;DHT22;31439;53.512;10.206;2023-05-27T08:42:48;16.20;99.90
45729;DHT22;31439;53.512;10.206;2023-05-27T08:45:15;16.20;99.90
45729;DHT22;31439;53.512;10.206;2023-05-27T08:47:41;16.30;99.90
45729;DHT22;31439;53.512;10.206;2023-05-27T08:50:07;16.30;99.90
45729;DHT22;31439;53.512;10.206;2023-05-27T08:52:33;16.20;99.90
45729;DHT22;31439;53.512;10.206;2023-05-27T08:55:03;16.40;99.90
45729;DHT22;31439;53.512;10.206;2023-05-27T08:57:33;16.30;99.90
45729;DHT22;31439;53.512;10.206;2023-05-27T09:00:03;16.40;99.90
45729;DHT22;31439;53.512;10.206;2023-05-27T09:02:37;16.60;99.90
45729;DHT22;31439;53.512;10.206;2023-05-27T09:05:02;16.60;99.90
45729;DHT22;31439;53.512;10.206;2023-05-27T09:07:28;16.40;99.90
45729;DHT22;31439;53.512;10.206;2023-05-27T09:09:57;16.20;99.90
45729;DHT22;31439;53.512;10.206;2023-05-27T09:12:24;16.10;99.90
45729;DHT22;31439;53.512;10.206;2023-05-27T09:14:51;16.10;99.90
45729;DHT22;31439;53.512;10.206;2023-05-27T09:17:17;16.00;99.90
45729;DHT22;31439;53.512;10.206;2023-05-27T09:19:44;15.90;99.90
45729;DHT22;31439;53.512;10.206;2023-05-27T09:22:31;15.90;99.90
45729;DHT22;31439;53.512;10.206;2023-05-27T09:24:57;15.90;99.90
45729;DHT22;31439;53.512;10.206;2023-05-27T09:27:31;16.00;99.90
45729;DHT22;31439;53.512;10.206;2023-05-27T09:29:58;16.00;99.90
45729;DHT22;31439;53.512;10.206;2023-05-27T09:32:32;16.10;99.90
45729;DHT22;31439;53.512;10.206;2023-05-27T09:34:59;16.20;99.90
45729;DHT22;31439;53.512;10.206;2023-05-27T09:37:26;16.30;99.90
45729;DHT22;31439;53.512;10.206;2023-05-27T09:40:00;16.50;99.90
45729;DHT22;31439;53.512;10.206;2023-05-27T09:42:50;16.50;99.90
45729;DHT22;31439;53.512;10.206;2023-05-27T09:45:17;16.80;99.90
45729;DHT22;31439;53.512;10.206;2023-05-27T09:47:47;16.90;99.90
45729;DHT22;31439;53.512;10.206;2023-05-27T09:50:13;17.10;99.90
45729;DHT22;31439;53.512;10.206;2023-05-27T09:52:40;17.20;99.90
45729;DHT22;31439;53.512;10.206;2023-05-27T09:55:08;17.30;99.90
45729;DHT22;31439;53.512;10.206;2023-05-27T09:57:37;17.40;99.90
45729;DHT22;31439;53.512;10.206;2023-05-27T10:00:05;17.40;99.90
45729;DHT22;31439;53.512;10.206;2023-05-27T10:02:46;17.50;99.90
45729;DHT22;31439;53.512;10.206;2023-05-27T10:05:13;17.70;99.90
45729;DHT22;31439;53.512;10.206;2023-05-27T10:07:41;17.80;99.90
45729;DHT22;31439;53.512;10.206;2023-05-27T10:10:09;18.10;99.90
45729;DHT22;31439;53.512;10.206;2023-05-27T10:12:39;18.20;99.90
45729;DHT22;31439;53.512;10.206;2023-05-27T10:15:06;18.20;99.90
45729;DHT22;31439;53.512;10.206;2023-05-27T10:17:49;18.20;99.90
45729;DHT22;31439;53.512;10.206;2023-05-27T10:20:31;18.20;99.90
45729;DHT22;31439;53.512;10.206;2023-05-27T10:23:20;18.10;99.90
45729;DHT22;31439;53.512;10.206;2023-05-27T10:25:51;18.00;99.90
45729;DHT22;31439;53.512;10.206;2023-05-27T10:28:43;18.10;99.90
45729;DHT22;31439;53.512;10.206;2023-05-27T10:31:10;18.40;99.90
45729;DHT22;31439;53.512;10.206;2023-05-27T10:33:43;18.50;99.90
45729;DHT22;31439;53.512;10.206;2023-05-27T10:36:12;18.70;99.90
45729;DHT22;31439;53.512;10.206;2023-05-27T10:38:40;19.00;99.90
45729;DHT22;31439;53.512;10.206;2023-05-27T10:41:06;19.00;99.90
45729;DHT22;31439;53.512;10.206;2023-05-27T10:43:33;19.10;99.90
45729;DHT22;31439;53.512;10.206;2023-05-27T10:46:12;19.10;99.90
45729;DHT22;31439;53.512;10.206;2023-05-27T10:48:38;18.70;99.90
45729;DHT22;31439;53.512;10.206;2023-05-27T10:51:08;18.30;99.90
45729;DHT22;31439;53.512;10.206;2023-05-27T10:53:37;18.10;99.90
45729;DHT22;31439;53.512;10.206;2023-05-27T10:56:03;17.90;99.90
45729;DHT22;31439;53.512;10.206;2023-05-27T10:58:36;17.80;99.90
45729;DHT22;31439;53.512;10.206;2023-05-27T11:01:10;17.70;99.90
45729;DHT22;31439;53.512;10.206;2023-05-27T11:03:43;17.60;99.90
45729;DHT22;31439;53.512;10.206;2023-05-27T11:06:13;17.60;99.90
45729;DHT22;31439;53.512;10.206;2023-05-27T11:08:41;17.50;99.90
45729;DHT22;31439;53.512;10.206;2023-05-27T11:11:09;17.50;99.90
45729;DHT22;31439;53.512;10.206;2023-05-27T11:13:45;17.70;99.90
45729;DHT22;31439;53.512;10.206;2023-05-27T11:16:20;17.70;99.90
45729;DHT22;31439;53.512;10.206;2023-05-27T11:18:48;18.00;99.90
45729;DHT22;31439;53.512;10.206;2023-05-27T11:21:15;18.10;99.90
45729;DHT22;31439;53.512;10.206;2023-05-27T11:23:43;18.30;99.90
45729;DHT22;31439;53.512;10.206;2023-05-27T11:26:20;18.10;99.90
45729;DHT22;31439;53.512;10.206;2023-05-27T11:28:55;17.90;99.90
45729;DHT22;31439;53.512;10.206;2023-05-27T11:31:30;18.60;99.90
45729;DHT22;31439;53.512;10.206;2023-05-27T11:33:59;18.70;99.90
45729;DHT22;31439;53.512;10.206;2023-05-27T11:36:28;19.00;99.90
45729;DHT22;31439;53.512;10.206;2023-05-27T11:39:02;18.80;99.90
45729;DHT22;31439;53.512;10.206;2023-05-27T11:41:35;18.90;99.90
45729;DHT22;31439;53.512;10.206;2023-05-27T11:44:06;18.90;99.90
45729;DHT22;31439;53.512;10.206;2023-05-27T11:46:42;18.80;99.90
45729;DHT22;31439;53.512;10.206;2023-05-27T11:49:14;19.10;99.90
45729;DHT22;31439;53.512;10.206;2023-05-27T11:51:49;19.30;99.90
45729;DHT22;31439;53.512;10.206;2023-05-27T11:54:26;19.40;99.90
45729;DHT22;31439;53.512;10.206;2023-05-27T11:56:53;19.50;99.90
45729;DHT22;31439;53.512;10.206;2023-05-27T11:59:20;19.50;99.90
45729;DHT22;31439;53.512;10.206;2023-05-27T12:01:46;19.40;99.90
45729;DHT22;31439;53.512;10.206;2023-05-27T12:04:12;19.40;99.90
45729;DHT22;31439;53.512;10.206;2023-05-27T12:06:38;19.50;99.90
45729;DHT22;31439;53.512;10.206;2023-05-27T12:09:04;19.70;99.90
45729;DHT22;31439;53.512;10.206;2023-05-27T12:11:34;19.80;99.90
45729;DHT22;31439;53.512;10.206;2023-05-27T12:14:00;19.80;99.90
45729;DHT22;31439;53.512;10.206;2023-05-27T12:16:26;19.90;99.90
45729;DHT22;31439;53.512;10.206;2023-05-27T12:18:52;20.10;99.90
45729;DHT22;31439;53.512;10.206;2023-05-27T12:21:18;20.40;99.90
45729;DHT22;31439;53.512;10.206;2023-05-27T12:23:44;20.70;99.90
45729;DHT22;31439;53.512;10.206;2023-05-27T12:26:11;20.80;99.90
45729;DHT22;31439;53.512;10.206;2023-05-27T12:28:37;20.80;99.90
45729;DHT22;31439;53.512;10.206;2023-05-27T12:31:03;21.80;99.90
45729;DHT22;31439;53.512;10.206;2023-05-27T12:33:29;22.70;99.90
45729;DHT22;31439;53.512;10.206;2023-05-27T12:35:56;23.00;99.90
45729;DHT22;31439;53.512;10.206;2023-05-27T12:38:21;23.50;99.90
45729;DHT22;31439;53.512;10.206;2023-05-27T12:40:47;23.80;99.90
45729;DHT22;31439;53.512;10.206;2023-05-27T12:43:14;24.20;99.90
45729;DHT22;31439;53.512;10.206;2023-05-27T12:45:40;24.30;99.90
45729;DHT22;31439;53.512;10.206;2023-05-27T12:48:06;24.00;99.90
45729;DHT22;31439;53.512;10.206;2023-05-27T12:50:32;24.10;99.90
45729;DHT22;31439;53.512;10.206;2023-05-27T12:52:58;24.30;99.90
45729;DHT22;31439;53.512;10.206;2023-05-27T12:55:25;24.60;99.90
45729;DHT22;31439;53.512;10.206;2023-05-27T12:57:52;24.80;99.90
45729;DHT22;31439;53.512;10.206;2023-05-27T13:00:19;24.90;99.90
45729;DHT22;31439;53.512;10.206;2023-05-27T13:02:46;25.00;99.90
45729;DHT22;31439;53.512;10.206;2023-05-27T13:05:16;24.70;99.90
45729;DHT22;31439;53.512;10.206;2023-05-27T13:07:59;24.70;99.90
45729;DHT22;31439;53.512;10.206;2023-05-27T13:10:26;24.80;99.90
45729;DHT22;31439;53.512;10.206;2023-05-27T13:12:52;24.70;99.90
45729;DHT22;31439;53.512;10.206;2023-05-27T13:15:18;24.50;99.90
45729;DHT22;31439;53.512;10.206;2023-05-27T13:17:44;24.20;99.90
45729;DHT22;31439;53.512;10.206;2023-05-27T13:20:12;24.40;99.90
45729;DHT22;31439;53.512;10.206;2023-05-27T13:22:37;24.50;99.90
45729;DHT22;31439;53.512;10.206;2023-05-27T13:25:04;24.30;99.90
45729;DHT22;31439;53.512;10.206;2023-05-27T13:27:30;24.60;99.90
45729;DHT22;31439;53.512;10.206;2023-05-27T13:29:56;25.10;99.90
45729;DHT22;31439;53.512;10.206;2023-05-27T13:32:22;25.00;99.90
45729;DHT22;31439;53.512;10.206;2023-05-27T13:34:47;25.10;99.90
45729;DHT22;31439;53.512;10.206;2023-05-27T13:37:13;25.10;99.90
45729;DHT22;31439;53.512;10.206;2023-05-27T13:39:39;25.40;99.90
45729;DHT22;31439;53.512;10.206;2023-05-27T13:42:09;25.30;99.90
45729;DHT22;31439;53.512;10.206;2023-05-27T13:44:35;25.50;99.90
45729;DHT22;31439;53.512;10.206;2023-05-27T13:47:01;25.60;99.90
45729;DHT22;31439;53.512;10.206;2023-05-27T13:49:27;24.90;99.00
45729;DHT22;31439;53.512;10.206;2023-05-27T13:51:52;25.00;99.90
45729;DHT22;31439;53.512;10.206;2023-05-27T13:54:18;24.70;98.00
45729;DHT22;31439;53.512;10.206;2023-05-27T13:56:44;25.10;98.10
45729;DHT22;31439;53.512;10.206;2023-05-27T13:59:11;24.90;99.90
45729;DHT22;31439;53.512;10.206;2023-05-27T14:01:38;24.40;99.90
45729;DHT22;31439;53.512;10.206;2023-05-27T14:04:04;23.90;99.00
45729;DHT22;31439;53.512;10.206;2023-05-27T19:57:34;17.80;99.90
45729;DHT22;31439;53.512;10.206;2023-05-27T20:00:26;17.80;99.90
45729;DHT22;31439;53.512;10.206;2023-05-27T20:06:14;17.60;99.90
45729;DHT22;31439;53.512;10.206;2023-05-27T20:12:02;17.50;99.90
45729;DHT22;31439;53.512;10.206;2023-05-27T20:20:32;17.20;99.90
45729;DHT22;31439;53.512;10.206;2023-05-27T20:23:02;17.20;99.90
45729;DHT22;31439;53.512;10.206;2023-05-27T20:25:28;17.20;99.90
45729;DHT22;31439;53.512;10.206;2023-05-27T20:38:30;17.20;99.90
45729;DHT22;31439;53.512;10.206;2023-05-27T20:40:56;17.40;99.90
45729;DHT22;31439;53.512;10.206;2023-05-27T20:43:25;17.40;99.90
45729;DHT22;31439;53.512;10.206;2023-05-27T20:45:57;17.40;99.90
45729;DHT22;31439;53.512;10.206;2023-05-27T20:48:25;17.40;99.90
45729;DHT22;31439;53.512;10.206;2023-05-27T20:57:56;17.50;99.90
45729;DHT22;31439;53.512;10.206;2023-05-27T21:00:36;17.40;99.90
45729;DHT22;31439;53.512;10.206;2023-05-27T21:03:02;17.40;99.90
45729;DHT22;31439;53.512;10.206;2023-05-27T21:05:38;17.40;99.90
45729;DHT22;31439;53.512;10.206;2023-05-27T21:08:07;17.30;99.90
45729;DHT22;31439;53.512;10.206;2023-05-27T21:10:55;17.40;99.90
45729;DHT22;31439;53.512;10.206;2023-05-27T21:13:30;17.30;99.90
45729;DHT22;31439;53.512;10.206;2023-05-27T21:15:55;17.20;99.90
45729;DHT22;31439;53.512;10.206;2023-05-27T21:18:24;17.20;99.90
45729;DHT22;31439;53.512;10.206;2023-05-27T21:20:50;17.10;99.90
45729;DHT22;31439;53.512;10.206;2023-05-27T21:23:18;17.10;99.90
45729;DHT22;31439;53.512;10.206;2023-05-27T21:25:44;17.00;99.90
45729;DHT22;31439;53.512;10.206;2023-05-27T21:28:13;17.10;99.90
45729;DHT22;31439;53.512;10.206;2023-05-27T21:30:38;17.60;99.90
45729;DHT22;31439;53.512;10.206;2023-05-27T21:33:24;18.00;99.90
45729;DHT22;31439;53.512;10.206;2023-05-27T21:35:50;18.40;99.90
45729;DHT22;31439;53.512;10.206;2023-05-27T21:38:19;18.50;99.90
45729;DHT22;31439;53.512;10.206;2023-05-27T21:40:45;18.40;99.90
45729;DHT22;31439;53.512;10.206;2023-05-27T21:43:11;18.40;99.90
45729;DHT22;31439;53.512;10.206;2023-05-27T21:45:56;18.40;99.90
45729;DHT22;31439;53.512;10.206;2023-05-27T21:48:24;18.40;99.90